sensor_id;sensor_type;location;lat;lon;timestamp;P1;durP1;ratioP1;P2;durP2;ratioP2
32633;SDS011;19043;51.012;5.648;2022-10-16T00:01:29;2.85;;;1.40;;
32633;SDS011;19043;51.012;5.648;2022-10-16T00:03:55;3.38;;;1.98;;
32633;SDS011;19043;51.012;5.648;2022-10-16T00:06:21;3.80;;;1.50;;
32633;SDS011;19043;51.012;5.648;2022-10-16T00:08:46;4.43;;;1.73;;
32633;SDS011;19043;51.012;5.648;2022-10-16T00:11:13;4.35;;;1.42;;
32633;SDS011;19043;51.012;5.648;2022-10-16T00:13:40;3.63;;;1.85;;
32633;SDS011;19043;51.012;5.648;2022-10-16T00:16:05;3.47;;;1.73;;
32633;SDS011;19043;51.012;5.648;2022-10-16T00:18:31;6.10;;;2.10;;
32633;SDS011;19043;51.012;5.648;2022-10-16T00:21:01;7.88;;;1.35;;
32633;SDS011;19043;51.012;5.648;2022-10-16T00:23:26;3.90;;;1.30;;
32633;SDS011;19043;51.012;5.648;2022-10-16T00:25:58;6.83;;;1.67;;
32633;SDS011;19043;51.012;5.648;2022-10-16T00:28:24;5.25;;;1.65;;
32633;SDS011;19043;51.012;5.648;2022-10-16T00:30:49;5.93;;;1.30;;
32633;SDS011;19043;51.012;5.648;2022-10-16T00:33:15;6.63;;;2.33;;
32633;SDS011;19043;51.012;5.648;2022-10-16T00:35:40;8.13;;;1.60;;
32633;SDS011;19043;51.012;5.648;2022-10-16T00:38:05;3.43;;;1.63;;
32633;SDS011;19043;51.012;5.648;2022-10-16T00:40:30;7.13;;;2.00;;
32633;SDS011;19043;51.012;5.648;2022-10-16T00:42:56;3.85;;;1.75;;
32633;SDS011;19043;51.012;5.648;2022-10-16T00:45:22;4.07;;;1.80;;
32633;SDS011;19043;51.012;5.648;2022-10-16T00:47:47;3.63;;;1.50;;
32633;SDS011;19043;51.012;5.648;2022-10-16T00:50:27;4.22;;;1.52;;
32633;SDS011;19043;51.012;5.648;2022-10-16T00:52:54;3.70;;;1.65;;
32633;SDS011;19043;51.012;5.648;2022-10-16T00:55:20;3.08;;;1.30;;
32633;SDS011;19043;51.012;5.648;2022-10-16T00:57:45;5.47;;;1.77;;
32633;SDS011;19043;51.012;5.648;2022-10-16T01:00:13;2.92;;;1.23;;
32633;SDS011;19043;51.012;5.648;2022-10-16T01:02:39;6.07;;;2.00;;
32633;SDS011;19043;51.012;5.648;2022-10-16T01:05:04;4.75;;;1.85;;
32633;SDS011;19043;51.012;5.648;2022-10-16T01:12:33;6.60;;;1.83;;
32633;SDS011;19043;51.012;5.648;2022-10-16T01:20:20;5.30;;;2.65;;
32633;SDS011;19043;51.012;5.648;2022-10-16T01:25:39;4.63;;;1.80;;
32633;SDS011;19043;51.012;5.648;2022-10-16T01:28:08;8.63;;;2.33;;
32633;SDS011;19043;51.012;5.648;2022-10-16T01:30:34;3.83;;;1.77;;
32633;SDS011;19043;51.012;5.648;2022-10-16T01:35:52;7.55;;;2.15;;
32633;SDS011;19043;51.012;5.648;2022-10-16T01:38:34;4.82;;;1.52;;
32633;SDS011;19043;51.012;5.648;2022-10-16T01:41:06;7.07;;;1.60;;
32633;SDS011;19043;51.012;5.648;2022-10-16T01:43:36;3.42;;;1.55;;
32633;SDS011;19043;51.012;5.648;2022-10-16T01:46:02;3.72;;;1.58;;
32633;SDS011;19043;51.012;5.648;2022-10-16T01:48:28;4.35;;;1.65;;
32633;SDS011;19043;51.012;5.648;2022-10-16T01:50:59;4.05;;;2.08;;
32633;SDS011;19043;51.012;5.648;2022-10-16T01:53:26;3.63;;;2.05;;
32633;SDS011;19043;51.012;5.648;2022-10-16T01:55:51;5.45;;;2.30;;
32633;SDS011;19043;51.012;5.648;2022-10-16T01:58:18;6.60;;;2.00;;
32633;SDS011;19043;51.012;5.648;2022-10-16T02:00:44;10.70;;;1.50;;
32633;SDS011;19043;51.012;5.648;2022-10-16T02:03:11;4.35;;;1.65;;
32633;SDS011;19043;51.012;5.648;2022-10-16T02:05:39;10.00;;;2.80;;
32633;SDS011;19043;51.012;5.648;2022-10-16T02:08:06;7.72;;;1.35;;
32633;SDS011;19043;51.012;5.648;2022-10-16T02:10:31;4.63;;;1.65;;
32633;SDS011;19043;51.012;5.648;2022-10-16T02:13:01;5.70;;;2.00;;
32633;SDS011;19043;51.012;5.648;2022-10-16T02:15:28;3.05;;;1.45;;
32633;SDS011;19043;51.012;5.648;2022-10-16T02:17:53;5.47;;;1.83;;
32633;SDS011;19043;51.012;5.648;2022-10-16T02:20:19;5.05;;;1.70;;
32633;SDS011;19043;51.012;5.648;2022-10-16T02:22:48;6.53;;;1.58;;
32633;SDS011;19043;51.012;5.648;2022-10-16T02:25:19;6.30;;;1.95;;
32633;SDS011;19043;51.012;5.648;2022-10-16T02:32:49;6.32;;;1.65;;
32633;SDS011;19043;51.012;5.648;2022-10-16T02:35:16;3.67;;;1.42;;
32633;SDS011;19043;51.012;5.648;2022-10-16T02:37:42;3.88;;;1.33;;
32633;SDS011;19043;51.012;5.648;2022-10-16T02:40:07;2.83;;;1.35;;
32633;SDS011;19043;51.012;5.648;2022-10-16T02:42:34;4.03;;;1.20;;
32633;SDS011;19043;51.012;5.648;2022-10-16T02:44:59;2.70;;;1.38;;
32633;SDS011;19043;51.012;5.648;2022-10-16T02:47:25;2.47;;;1.33;;
32633;SDS011;19043;51.012;5.648;2022-10-16T02:49:50;4.30;;;1.55;;
32633;SDS011;19043;51.012;5.648;2022-10-16T02:52:15;3.92;;;1.45;;
32633;SDS011;19043;51.012;5.648;2022-10-16T02:54:40;5.40;;;1.70;;
32633;SDS011;19043;51.012;5.648;2022-10-16T02:57:06;4.13;;;1.85;;
32633;SDS011;19043;51.012;5.648;2022-10-16T02:59:31;3.28;;;1.35;;
32633;SDS011;19043;51.012;5.648;2022-10-16T03:01:56;2.60;;;1.20;;
32633;SDS011;19043;51.012;5.648;2022-10-16T03:04:21;3.97;;;1.50;;
32633;SDS011;19043;51.012;5.648;2022-10-16T03:06:46;5.67;;;1.67;;
32633;SDS011;19043;51.012;5.648;2022-10-16T03:09:12;2.33;;;1.07;;
32633;SDS011;19043;51.012;5.648;2022-10-16T03:11:37;2.00;;;1.10;;
32633;SDS011;19043;51.012;5.648;2022-10-16T03:14:02;6.87;;;1.80;;
32633;SDS011;19043;51.012;5.648;2022-10-16T03:16:27;2.67;;;1.37;;
32633;SDS011;19043;51.012;5.648;2022-10-16T03:18:53;3.60;;;1.47;;
32633;SDS011;19043;51.012;5.648;2022-10-16T03:21:18;2.25;;;1.42;;
32633;SDS011;19043;51.012;5.648;2022-10-16T03:23:43;4.30;;;1.73;;
32633;SDS011;19043;51.012;5.648;2022-10-16T03:26:08;5.68;;;1.67;;
32633;SDS011;19043;51.012;5.648;2022-10-16T03:28:33;3.13;;;1.50;;
32633;SDS011;19043;51.012;5.648;2022-10-16T03:30:59;7.03;;;2.20;;
32633;SDS011;19043;51.012;5.648;2022-10-16T03:33:24;4.57;;;1.33;;
32633;SDS011;19043;51.012;5.648;2022-10-16T03:35:53;3.00;;;1.10;;
32633;SDS011;19043;51.012;5.648;2022-10-16T03:38:18;5.32;;;1.55;;
32633;SDS011;19043;51.012;5.648;2022-10-16T03:40:44;4.22;;;1.60;;
32633;SDS011;19043;51.012;5.648;2022-10-16T03:43:09;7.83;;;2.13;;
32633;SDS011;19043;51.012;5.648;2022-10-16T03:45:34;9.67;;;1.83;;
32633;SDS011;19043;51.012;5.648;2022-10-16T03:47:59;7.80;;;2.08;;
32633;SDS011;19043;51.012;5.648;2022-10-16T03:50:25;3.20;;;1.90;;
32633;SDS011;19043;51.012;5.648;2022-10-16T03:52:50;4.60;;;1.60;;
32633;SDS011;19043;51.012;5.648;2022-10-16T03:55:15;3.78;;;1.88;;
32633;SDS011;19043;51.012;5.648;2022-10-16T03:57:40;3.53;;;1.58;;
32633;SDS011;19043;51.012;5.648;2022-10-16T04:00:06;4.20;;;2.08;;
32633;SDS011;19043;51.012;5.648;2022-10-16T04:02:31;4.20;;;1.60;;
32633;SDS011;19043;51.012;5.648;2022-10-16T04:04:56;4.45;;;1.65;;
32633;SDS011;19043;51.012;5.648;2022-10-16T04:07:22;5.20;;;2.08;;
32633;SDS011;19043;51.012;5.648;2022-10-16T04:09:47;5.68;;;2.30;;
32633;SDS011;19043;51.012;5.648;2022-10-16T04:12:12;4.32;;;1.95;;
32633;SDS011;19043;51.012;5.648;2022-10-16T04:14:37;5.28;;;2.08;;
32633;SDS011;19043;51.012;5.648;2022-10-16T04:17:03;5.47;;;2.23;;
32633;SDS011;19043;51.012;5.648;2022-10-16T04:19:28;5.97;;;2.43;;
32633;SDS011;19043;51.012;5.648;2022-10-16T04:21:53;4.13;;;2.03;;
32633;SDS011;19043;51.012;5.648;2022-10-16T04:24:18;7.00;;;2.03;;
32633;SDS011;19043;51.012;5.648;2022-10-16T04:26:43;4.10;;;2.07;;
32633;SDS011;19043;51.012;5.648;2022-10-16T04:29:09;6.33;;;2.07;;
32633;SDS011;19043;51.012;5.648;2022-10-16T04:31:34;5.15;;;2.42;;
32633;SDS011;19043;51.012;5.648;2022-10-16T04:33:59;8.45;;;2.65;;
32633;SDS011;19043;51.012;5.648;2022-10-16T04:36:24;5.88;;;2.40;;
32633;SDS011;19043;51.012;5.648;2022-10-16T04:38:49;14.73;;;2.90;;
32633;SDS011;19043;51.012;5.648;2022-10-16T04:41:15;8.67;;;3.27;;
32633;SDS011;19043;51.012;5.648;2022-10-16T04:43:40;5.95;;;2.45;;
32633;SDS011;19043;51.012;5.648;2022-10-16T04:46:05;4.43;;;2.58;;
32633;SDS011;19043;51.012;5.648;2022-10-16T04:48:31;5.78;;;2.40;;
32633;SDS011;19043;51.012;5.648;2022-10-16T04:50:56;6.05;;;2.80;;
32633;SDS011;19043;51.012;5.648;2022-10-16T04:53:21;4.90;;;3.08;;
32633;SDS011;19043;51.012;5.648;2022-10-16T04:55:47;7.30;;;2.67;;
32633;SDS011;19043;51.012;5.648;2022-10-16T04:58:12;4.45;;;2.85;;
32633;SDS011;19043;51.012;5.648;2022-10-16T05:00:37;5.60;;;2.88;;
32633;SDS011;19043;51.012;5.648;2022-10-16T05:03:03;5.78;;;2.55;;
32633;SDS011;19043;51.012;5.648;2022-10-16T05:05:32;3.70;;;2.65;;
32633;SDS011;19043;51.012;5.648;2022-10-16T05:07:57;4.03;;;2.50;;
32633;SDS011;19043;51.012;5.648;2022-10-16T05:10:22;5.00;;;3.28;;
32633;SDS011;19043;51.012;5.648;2022-10-16T05:12:48;4.43;;;3.00;;
32633;SDS011;19043;51.012;5.648;2022-10-16T05:15:13;3.85;;;2.58;;
32633;SDS011;19043;51.012;5.648;2022-10-16T05:17:39;7.38;;;3.45;;
32633;SDS011;19043;51.012;5.648;2022-10-16T05:20:04;4.88;;;3.20;;
32633;SDS011;19043;51.012;5.648;2022-10-16T05:22:29;15.80;;;3.03;;
32633;SDS011;19043;51.012;5.648;2022-10-16T05:24:55;7.20;;;3.33;;
32633;SDS011;19043;51.012;5.648;2022-10-16T05:27:20;9.55;;;3.53;;
32633;SDS011;19043;51.012;5.648;2022-10-16T05:29:46;6.27;;;3.47;;
32633;SDS011;19043;51.012;5.648;2022-10-16T05:32:12;6.20;;;3.33;;
32633;SDS011;19043;51.012;5.648;2022-10-16T05:34:37;10.20;;;3.38;;
32633;SDS011;19043;51.012;5.648;2022-10-16T05:37:02;4.90;;;3.87;;
32633;SDS011;19043;51.012;5.648;2022-10-16T05:39:27;7.87;;;3.40;;
32633;SDS011;19043;51.012;5.648;2022-10-16T05:41:53;6.47;;;3.85;;
32633;SDS011;19043;51.012;5.648;2022-10-16T05:44:18;7.40;;;4.33;;
32633;SDS011;19043;51.012;5.648;2022-10-16T05:46:43;7.20;;;3.87;;
32633;SDS011;19043;51.012;5.648;2022-10-16T05:49:08;7.30;;;4.80;;
32633;SDS011;19043;51.012;5.648;2022-10-16T05:51:33;8.07;;;4.38;;
32633;SDS011;19043;51.012;5.648;2022-10-16T05:53:59;5.93;;;4.60;;
32633;SDS011;19043;51.012;5.648;2022-10-16T05:56:24;6.22;;;4.43;;
32633;SDS011;19043;51.012;5.648;2022-10-16T05:58:49;5.65;;;4.10;;
32633;SDS011;19043;51.012;5.648;2022-10-16T06:01:15;8.75;;;4.65;;
32633;SDS011;19043;51.012;5.648;2022-10-16T06:03:41;6.88;;;4.22;;
32633;SDS011;19043;51.012;5.648;2022-10-16T06:06:07;6.43;;;4.63;;
32633;SDS011;19043;51.012;5.648;2022-10-16T06:08:32;6.88;;;5.40;;
32633;SDS011;19043;51.012;5.648;2022-10-16T06:11:05;11.75;;;5.18;;
32633;SDS011;19043;51.012;5.648;2022-10-16T06:13:30;7.45;;;4.85;;
32633;SDS011;19043;51.012;5.648;2022-10-16T06:15:56;8.80;;;4.97;;
32633;SDS011;19043;51.012;5.648;2022-10-16T06:18:22;7.25;;;4.63;;
32633;SDS011;19043;51.012;5.648;2022-10-16T06:20:47;8.45;;;4.80;;
32633;SDS011;19043;51.012;5.648;2022-10-16T06:23:12;9.50;;;4.45;;
32633;SDS011;19043;51.012;5.648;2022-10-16T06:25:37;8.07;;;4.43;;
32633;SDS011;19043;51.012;5.648;2022-10-16T06:28:03;11.60;;;4.47;;
32633;SDS011;19043;51.012;5.648;2022-10-16T06:30:28;6.35;;;4.32;;
32633;SDS011;19043;51.012;5.648;2022-10-16T06:32:53;5.80;;;3.60;;
32633;SDS011;19043;51.012;5.648;2022-10-16T06:35:19;6.70;;;4.57;;
32633;SDS011;19043;51.012;5.648;2022-10-16T06:37:44;6.57;;;3.85;;
32633;SDS011;19043;51.012;5.648;2022-10-16T06:40:09;7.37;;;4.10;;
32633;SDS011;19043;51.012;5.648;2022-10-16T06:42:34;6.55;;;3.92;;
32633;SDS011;19043;51.012;5.648;2022-10-16T06:45:00;6.70;;;4.20;;
32633;SDS011;19043;51.012;5.648;2022-10-16T06:47:26;8.43;;;4.00;;
32633;SDS011;19043;51.012;5.648;2022-10-16T06:49:52;9.75;;;4.00;;
32633;SDS011;19043;51.012;5.648;2022-10-16T06:52:17;7.23;;;4.33;;
32633;SDS011;19043;51.012;5.648;2022-10-16T06:54:42;5.55;;;3.70;;
32633;SDS011;19043;51.012;5.648;2022-10-16T06:57:07;6.83;;;4.20;;
32633;SDS011;19043;51.012;5.648;2022-10-16T06:59:33;13.13;;;4.20;;
32633;SDS011;19043;51.012;5.648;2022-10-16T07:01:58;11.93;;;4.53;;
32633;SDS011;19043;51.012;5.648;2022-10-16T07:04:23;8.20;;;4.03;;
32633;SDS011;19043;51.012;5.648;2022-10-16T07:06:48;7.70;;;3.63;;
32633;SDS011;19043;51.012;5.648;2022-10-16T07:09:13;6.70;;;4.40;;
32633;SDS011;19043;51.012;5.648;2022-10-16T07:11:39;7.13;;;4.82;;
32633;SDS011;19043;51.012;5.648;2022-10-16T07:14:04;5.50;;;3.97;;
32633;SDS011;19043;51.012;5.648;2022-10-16T07:16:30;7.07;;;3.80;;
32633;SDS011;19043;51.012;5.648;2022-10-16T07:18:57;5.70;;;4.00;;
32633;SDS011;19043;51.012;5.648;2022-10-16T07:21:24;11.52;;;5.10;;
32633;SDS011;19043;51.012;5.648;2022-10-16T07:23:54;6.13;;;4.63;;
32633;SDS011;19043;51.012;5.648;2022-10-16T07:26:20;13.02;;;4.93;;
32633;SDS011;19043;51.012;5.648;2022-10-16T07:28:45;9.20;;;4.68;;
32633;SDS011;19043;51.012;5.648;2022-10-16T07:31:12;7.10;;;4.35;;
32633;SDS011;19043;51.012;5.648;2022-10-16T07:33:38;8.15;;;3.88;;
32633;SDS011;19043;51.012;5.648;2022-10-16T07:36:04;6.13;;;4.38;;
32633;SDS011;19043;51.012;5.648;2022-10-16T07:38:30;8.80;;;4.43;;
32633;SDS011;19043;51.012;5.648;2022-10-16T07:40:59;6.45;;;3.72;;
32633;SDS011;19043;51.012;5.648;2022-10-16T07:43:25;5.65;;;3.40;;
32633;SDS011;19043;51.012;5.648;2022-10-16T07:45:50;5.07;;;3.10;;
32633;SDS011;19043;51.012;5.648;2022-10-16T07:48:16;9.90;;;3.90;;
32633;SDS011;19043;51.012;5.648;2022-10-16T07:50:41;5.85;;;3.25;;
32633;SDS011;19043;51.012;5.648;2022-10-16T07:53:07;5.85;;;3.47;;
32633;SDS011;19043;51.012;5.648;2022-10-16T07:55:32;8.57;;;3.10;;
32633;SDS011;19043;51.012;5.648;2022-10-16T07:57:58;8.27;;;3.60;;
32633;SDS011;19043;51.012;5.648;2022-10-16T08:00:23;7.20;;;3.27;;
32633;SDS011;19043;51.012;5.648;2022-10-16T08:02:48;6.45;;;2.80;;
32633;SDS011;19043;51.012;5.648;2022-10-16T08:05:13;4.77;;;2.40;;
32633;SDS011;19043;51.012;5.648;2022-10-16T08:07:39;3.63;;;2.05;;
32633;SDS011;19043;51.012;5.648;2022-10-16T08:10:04;6.37;;;2.37;;
32633;SDS011;19043;51.012;5.648;2022-10-16T08:12:29;5.95;;;2.33;;
32633;SDS011;19043;51.012;5.648;2022-10-16T08:14:55;4.20;;;1.80;;
32633;SDS011;19043;51.012;5.648;2022-10-16T08:17:20;3.67;;;1.63;;
32633;SDS011;19043;51.012;5.648;2022-10-16T08:19:46;3.72;;;1.90;;
32633;SDS011;19043;51.012;5.648;2022-10-16T08:22:12;5.05;;;1.60;;
32633;SDS011;19043;51.012;5.648;2022-10-16T08:24:37;2.63;;;1.75;;
32633;SDS011;19043;51.012;5.648;2022-10-16T08:27:02;3.00;;;1.47;;
32633;SDS011;19043;51.012;5.648;2022-10-16T08:29:28;4.40;;;1.80;;
32633;SDS011;19043;51.012;5.648;2022-10-16T08:31:53;5.00;;;1.83;;
32633;SDS011;19043;51.012;5.648;2022-10-16T08:34:18;3.67;;;1.80;;
32633;SDS011;19043;51.012;5.648;2022-10-16T08:36:43;8.38;;;2.60;;
32633;SDS011;19043;51.012;5.648;2022-10-16T08:39:09;4.97;;;2.47;;
32633;SDS011;19043;51.012;5.648;2022-10-16T08:44:27;12.80;;;2.75;;
32633;SDS011;19043;51.012;5.648;2022-10-16T08:49:23;4.22;;;1.60;;
32633;SDS011;19043;51.012;5.648;2022-10-16T08:51:49;5.40;;;1.38;;
32633;SDS011;19043;51.012;5.648;2022-10-16T08:56:43;4.15;;;1.77;;
32633;SDS011;19043;51.012;5.648;2022-10-16T08:59:12;3.80;;;1.37;;
32633;SDS011;19043;51.012;5.648;2022-10-16T09:01:40;5.38;;;2.15;;
32633;SDS011;19043;51.012;5.648;2022-10-16T09:11:48;3.15;;;1.40;;
32633;SDS011;19043;51.012;5.648;2022-10-16T09:19:51;4.78;;;1.73;;
32633;SDS011;19043;51.012;5.648;2022-10-16T09:22:18;8.88;;;1.42;;
32633;SDS011;19043;51.012;5.648;2022-10-16T09:24:47;4.03;;;1.20;;
32633;SDS011;19043;51.012;5.648;2022-10-16T09:27:13;4.03;;;1.17;;
32633;SDS011;19043;51.012;5.648;2022-10-16T09:29:39;9.63;;;1.65;;
32633;SDS011;19043;51.012;5.648;2022-10-16T09:32:14;7.00;;;1.02;;
32633;SDS011;19043;51.012;5.648;2022-10-16T09:34:42;4.95;;;1.20;;
32633;SDS011;19043;51.012;5.648;2022-10-16T09:37:09;3.17;;;1.17;;
32633;SDS011;19043;51.012;5.648;2022-10-16T09:39:48;4.35;;;1.65;;
32633;SDS011;19043;51.012;5.648;2022-10-16T09:42:24;5.57;;;1.55;;
32633;SDS011;19043;51.012;5.648;2022-10-16T09:44:51;3.65;;;1.48;;
32633;SDS011;19043;51.012;5.648;2022-10-16T09:47:20;5.93;;;1.33;;
32633;SDS011;19043;51.012;5.648;2022-10-16T09:52:20;2.75;;;1.05;;
32633;SDS011;19043;51.012;5.648;2022-10-16T09:54:49;4.47;;;1.38;;
32633;SDS011;19043;51.012;5.648;2022-10-16T09:57:14;2.78;;;1.25;;
32633;SDS011;19043;51.012;5.648;2022-10-16T09:59:50;8.02;;;1.55;;
32633;SDS011;19043;51.012;5.648;2022-10-16T10:02:16;2.38;;;1.00;;
32633;SDS011;19043;51.012;5.648;2022-10-16T10:04:44;5.85;;;1.38;;
32633;SDS011;19043;51.012;5.648;2022-10-16T10:07:17;2.90;;;1.23;;
32633;SDS011;19043;51.012;5.648;2022-10-16T10:09:43;3.25;;;1.25;;
32633;SDS011;19043;51.012;5.648;2022-10-16T10:17:10;3.92;;;1.30;;
32633;SDS011;19043;51.012;5.648;2022-10-16T10:19:39;9.68;;;1.85;;
32633;SDS011;19043;51.012;5.648;2022-10-16T10:22:25;6.05;;;1.88;;
32633;SDS011;19043;51.012;5.648;2022-10-16T10:24:54;4.03;;;1.38;;
32633;SDS011;19043;51.012;5.648;2022-10-16T10:27:19;5.53;;;1.85;;
32633;SDS011;19043;51.012;5.648;2022-10-16T10:30:04;3.53;;;1.50;;
32633;SDS011;19043;51.012;5.648;2022-10-16T10:35:19;4.93;;;1.88;;
32633;SDS011;19043;51.012;5.648;2022-10-16T10:41:01;11.10;;;1.73;;
32633;SDS011;19043;51.012;5.648;2022-10-16T10:42:59;3.88;;;1.50;;
32633;SDS011;19043;51.012;5.648;2022-10-16T10:45:40;4.20;;;1.67;;
32633;SDS011;19043;51.012;5.648;2022-10-16T11:08:18;3.55;;;1.30;;
32633;SDS011;19043;51.012;5.648;2022-10-16T11:13:15;5.15;;;1.88;;
32633;SDS011;19043;51.012;5.648;2022-10-16T11:15:42;5.32;;;1.60;;
32633;SDS011;19043;51.012;5.648;2022-10-16T11:18:16;6.22;;;1.75;;
32633;SDS011;19043;51.012;5.648;2022-10-16T11:20:53;5.22;;;1.08;;
32633;SDS011;19043;51.012;5.648;2022-10-16T11:23:27;2.15;;;1.08;;
32633;SDS011;19043;51.012;5.648;2022-10-16T11:25:54;4.15;;;1.60;;
32633;SDS011;19043;51.012;5.648;2022-10-16T11:28:29;3.42;;;1.25;;
32633;SDS011;19043;51.012;5.648;2022-10-16T11:31:17;5.22;;;1.17;;
32633;SDS011;19043;51.012;5.648;2022-10-16T11:36:32;3.90;;;1.67;;
32633;SDS011;19043;51.012;5.648;2022-10-16T11:44:34;2.17;;;1.02;;
32633;SDS011;19043;51.012;5.648;2022-10-16T11:47:05;1.80;;;0.90;;
32633;SDS011;19043;51.012;5.648;2022-10-16T11:49:33;3.00;;;1.45;;
32633;SDS011;19043;51.012;5.648;2022-10-16T11:54:51;4.07;;;1.17;;
32633;SDS011;19043;51.012;5.648;2022-10-16T11:57:17;3.25;;;1.02;;
32633;SDS011;19043;51.012;5.648;2022-10-16T12:05:01;2.17;;;1.00;;
32633;SDS011;19043;51.012;5.648;2022-10-16T12:07:28;2.90;;;1.23;;
32633;SDS011;19043;51.012;5.648;2022-10-16T12:09:57;3.80;;;1.30;;
32633;SDS011;19043;51.012;5.648;2022-10-16T12:15:01;9.63;;;0.90;;
32633;SDS011;19043;51.012;5.648;2022-10-16T12:17:35;6.72;;;1.38;;
32633;SDS011;19043;51.012;5.648;2022-10-16T12:20:22;4.05;;;1.15;;
32633;SDS011;19043;51.012;5.648;2022-10-16T12:25:21;3.45;;;1.25;;
32633;SDS011;19043;51.012;5.648;2022-10-16T12:27:53;2.95;;;1.00;;
32633;SDS011;19043;51.012;5.648;2022-10-16T12:30:20;3.70;;;1.33;;
32633;SDS011;19043;51.012;5.648;2022-10-16T12:32:52;3.60;;;1.08;;
32633;SDS011;19043;51.012;5.648;2022-10-16T12:35:25;3.78;;;1.27;;
32633;SDS011;19043;51.012;5.648;2022-10-16T12:37:51;2.63;;;0.83;;
32633;SDS011;19043;51.012;5.648;2022-10-16T12:40:27;2.80;;;1.05;;
32633;SDS011;19043;51.012;5.648;2022-10-16T12:42:54;2.20;;;1.10;;
32633;SDS011;19043;51.012;5.648;2022-10-16T12:45:30;3.40;;;1.42;;
32633;SDS011;19043;51.012;5.648;2022-10-16T12:47:56;3.95;;;1.20;;
32633;SDS011;19043;51.012;5.648;2022-10-16T12:50:32;2.72;;;0.93;;
32633;SDS011;19043;51.012;5.648;2022-10-16T12:52:58;3.25;;;1.13;;
32633;SDS011;19043;51.012;5.648;2022-10-16T12:55:24;2.38;;;1.00;;
32633;SDS011;19043;51.012;5.648;2022-10-16T13:10:26;3.92;;;1.00;;
32633;SDS011;19043;51.012;5.648;2022-10-16T13:15:30;3.73;;;1.33;;
32633;SDS011;19043;51.012;5.648;2022-10-16T13:23:17;5.93;;;1.05;;
32633;SDS011;19043;51.012;5.648;2022-10-16T13:28:14;5.35;;;0.95;;
32633;SDS011;19043;51.012;5.648;2022-10-16T13:30:51;2.55;;;0.95;;
32633;SDS011;19043;51.012;5.648;2022-10-16T13:33:17;5.13;;;1.40;;
32633;SDS011;19043;51.012;5.648;2022-10-16T13:36:03;4.15;;;0.90;;
32633;SDS011;19043;51.012;5.648;2022-10-16T13:38:33;2.72;;;0.88;;
32633;SDS011;19043;51.012;5.648;2022-10-16T13:41:02;2.65;;;1.00;;
32633;SDS011;19043;51.012;5.648;2022-10-16T13:43:33;4.93;;;0.82;;
32633;SDS011;19043;51.012;5.648;2022-10-16T13:48:25;3.58;;;1.33;;
32633;SDS011;19043;51.012;5.648;2022-10-16T13:53:25;3.35;;;1.17;;
32633;SDS011;19043;51.012;5.648;2022-10-16T13:55:50;2.30;;;0.80;;
32633;SDS011;19043;51.012;5.648;2022-10-16T13:58:16;3.55;;;0.93;;
32633;SDS011;19043;51.012;5.648;2022-10-16T14:00:52;5.28;;;0.77;;
32633;SDS011;19043;51.012;5.648;2022-10-16T14:03:18;2.22;;;0.70;;
32633;SDS011;19043;51.012;5.648;2022-10-16T14:05:57;2.22;;;1.00;;
32633;SDS011;19043;51.012;5.648;2022-10-16T14:08:24;10.70;;;1.60;;
32633;SDS011;19043;51.012;5.648;2022-10-16T14:10:51;1.85;;;0.63;;
32633;SDS011;19043;51.012;5.648;2022-10-16T14:13:19;3.10;;;0.93;;
32633;SDS011;19043;51.012;5.648;2022-10-16T14:15:49;3.65;;;1.38;;
32633;SDS011;19043;51.012;5.648;2022-10-16T14:18:23;3.33;;;0.98;;
32633;SDS011;19043;51.012;5.648;2022-10-16T14:20:49;9.13;;;1.25;;
32633;SDS011;19043;51.012;5.648;2022-10-16T14:25:43;1.58;;;0.63;;
32633;SDS011;19043;51.012;5.648;2022-10-16T14:28:17;2.75;;;0.90;;
32633;SDS011;19043;51.012;5.648;2022-10-16T14:30:50;3.42;;;1.05;;
32633;SDS011;19043;51.012;5.648;2022-10-16T14:35:56;8.63;;;1.70;;
32633;SDS011;19043;51.012;5.648;2022-10-16T14:38:24;2.22;;;0.75;;
32633;SDS011;19043;51.012;5.648;2022-10-16T14:40:49;6.25;;;1.80;;
32633;SDS011;19043;51.012;5.648;2022-10-16T14:43:19;6.07;;;1.30;;
32633;SDS011;19043;51.012;5.648;2022-10-16T14:45:49;16.38;;;1.90;;
32633;SDS011;19043;51.012;5.648;2022-10-16T14:48:16;6.13;;;1.33;;
32633;SDS011;19043;51.012;5.648;2022-10-16T14:50:43;6.10;;;1.10;;
32633;SDS011;19043;51.012;5.648;2022-10-16T14:53:11;4.00;;;1.30;;
32633;SDS011;19043;51.012;5.648;2022-10-16T14:55:37;3.97;;;1.02;;
32633;SDS011;19043;51.012;5.648;2022-10-16T14:58:02;3.97;;;1.75;;
32633;SDS011;19043;51.012;5.648;2022-10-16T15:00:27;4.72;;;1.30;;
32633;SDS011;19043;51.012;5.648;2022-10-16T15:02:52;6.05;;;2.30;;
32633;SDS011;19043;51.012;5.648;2022-10-16T15:05:19;10.90;;;2.30;;
32633;SDS011;19043;51.012;5.648;2022-10-16T15:07:45;4.63;;;1.35;;
32633;SDS011;19043;51.012;5.648;2022-10-16T15:10:11;2.97;;;1.33;;
32633;SDS011;19043;51.012;5.648;2022-10-16T15:12:36;8.48;;;1.70;;
32633;SDS011;19043;51.012;5.648;2022-10-16T15:15:05;4.33;;;1.97;;
32633;SDS011;19043;51.012;5.648;2022-10-16T15:17:39;3.75;;;1.63;;
32633;SDS011;19043;51.012;5.648;2022-10-16T15:20:05;7.13;;;2.33;;
32633;SDS011;19043;51.012;5.648;2022-10-16T15:22:30;3.95;;;2.15;;
32633;SDS011;19043;51.012;5.648;2022-10-16T15:24:55;7.43;;;2.05;;
32633;SDS011;19043;51.012;5.648;2022-10-16T15:27:20;9.60;;;1.90;;
32633;SDS011;19043;51.012;5.648;2022-10-16T15:29:46;4.67;;;1.27;;
32633;SDS011;19043;51.012;5.648;2022-10-16T15:32:11;4.53;;;1.30;;
32633;SDS011;19043;51.012;5.648;2022-10-16T15:34:36;8.00;;;1.55;;
32633;SDS011;19043;51.012;5.648;2022-10-16T15:37:04;2.17;;;0.93;;
32633;SDS011;19043;51.012;5.648;2022-10-16T15:39:30;6.03;;;1.50;;
32633;SDS011;19043;51.012;5.648;2022-10-16T15:41:55;5.77;;;1.53;;
32633;SDS011;19043;51.012;5.648;2022-10-16T15:44:20;9.57;;;1.57;;
32633;SDS011;19043;51.012;5.648;2022-10-16T15:46:48;9.40;;;1.60;;
32633;SDS011;19043;51.012;5.648;2022-10-16T15:49:13;4.78;;;1.02;;
32633;SDS011;19043;51.012;5.648;2022-10-16T15:51:39;3.78;;;1.48;;
32633;SDS011;19043;51.012;5.648;2022-10-16T15:54:04;2.92;;;0.85;;
32633;SDS011;19043;51.012;5.648;2022-10-16T15:56:29;4.25;;;1.30;;
32633;SDS011;19043;51.012;5.648;2022-10-16T15:58:58;2.45;;;1.20;;
32633;SDS011;19043;51.012;5.648;2022-10-16T16:01:23;4.20;;;1.08;;
32633;SDS011;19043;51.012;5.648;2022-10-16T16:03:52;8.60;;;1.48;;
32633;SDS011;19043;51.012;5.648;2022-10-16T16:06:17;4.53;;;2.03;;
32633;SDS011;19043;51.012;5.648;2022-10-16T16:08:42;9.80;;;1.88;;
32633;SDS011;19043;51.012;5.648;2022-10-16T16:11:09;18.63;;;1.52;;
32633;SDS011;19043;51.012;5.648;2022-10-16T16:13:34;3.92;;;1.33;;
32633;SDS011;19043;51.012;5.648;2022-10-16T16:16:02;7.18;;;1.67;;
32633;SDS011;19043;51.012;5.648;2022-10-16T16:18:29;5.38;;;2.88;;
32633;SDS011;19043;51.012;5.648;2022-10-16T16:20:54;7.75;;;1.83;;
32633;SDS011;19043;51.012;5.648;2022-10-16T16:23:20;4.25;;;1.70;;
32633;SDS011;19043;51.012;5.648;2022-10-16T16:26:01;8.73;;;2.25;;
32633;SDS011;19043;51.012;5.648;2022-10-16T16:28:27;5.75;;;1.38;;
32633;SDS011;19043;51.012;5.648;2022-10-16T16:30:52;5.47;;;1.60;;
32633;SDS011;19043;51.012;5.648;2022-10-16T16:33:18;8.83;;;1.70;;
32633;SDS011;19043;51.012;5.648;2022-10-16T16:35:43;6.23;;;1.73;;
32633;SDS011;19043;51.012;5.648;2022-10-16T16:38:08;6.13;;;2.22;;
32633;SDS011;19043;51.012;5.648;2022-10-16T16:40:33;5.65;;;1.75;;
32633;SDS011;19043;51.012;5.648;2022-10-16T16:42:59;4.63;;;1.40;;
32633;SDS011;19043;51.012;5.648;2022-10-16T16:45:24;7.10;;;1.60;;
32633;SDS011;19043;51.012;5.648;2022-10-16T16:47:50;3.45;;;1.38;;
32633;SDS011;19043;51.012;5.648;2022-10-16T16:50:15;15.32;;;1.70;;
32633;SDS011;19043;51.012;5.648;2022-10-16T16:52:41;7.43;;;1.73;;
32633;SDS011;19043;51.012;5.648;2022-10-16T16:55:06;5.25;;;2.05;;
32633;SDS011;19043;51.012;5.648;2022-10-16T16:57:31;4.18;;;1.73;;
32633;SDS011;19043;51.012;5.648;2022-10-16T16:59:56;5.78;;;1.70;;